sensor_id;sensor_type;location;lat;lon;timestamp;temperature;humidity
38265;DHT22;24062;47.480;8.768;2022-09-12T00:01:07;12.20;59.00
38265;DHT22;24062;47.480;8.768;2022-09-12T00:03:34;12.10;59.00
38265;DHT22;24062;47.480;8.768;2022-09-12T00:06:06;12.10;59.00
38265;DHT22;24062;47.480;8.768;2022-09-12T00:08:35;12.00;59.10
38265;DHT22;24062;47.480;8.768;2022-09-12T00:11:08;12.00;59.20
38265;DHT22;24062;47.480;8.768;2022-09-12T00:13:35;12.00;59.30
38265;DHT22;24062;47.480;8.768;2022-09-12T00:16:02;11.90;59.50
38265;DHT22;24062;47.480;8.768;2022-09-12T00:18:30;11.90;59.40
38265;DHT22;24062;47.480;8.768;2022-09-12T00:21:01;11.90;59.50
38265;DHT22;24062;47.480;8.768;2022-09-12T00:23:29;11.90;59.60
38265;DHT22;24062;47.480;8.768;2022-09-12T00:25:57;11.80;59.50
38265;DHT22;24062;47.480;8.768;2022-09-12T00:28:24;11.80;59.60
38265;DHT22;24062;47.480;8.768;2022-09-12T00:30:52;11.80;59.60
38265;DHT22;24062;47.480;8.768;2022-09-12T00:33:19;11.70;59.60
38265;DHT22;24062;47.480;8.768;2022-09-12T00:35:48;11.70;59.70
38265;DHT22;24062;47.480;8.768;2022-09-12T00:38:17;11.60;59.70
38265;DHT22;24062;47.480;8.768;2022-09-12T00:40:45;11.60;59.80
38265;DHT22;24062;47.480;8.768;2022-09-12T00:43:31;11.60;59.80
38265;DHT22;24062;47.480;8.768;2022-09-12T00:46:03;11.60;59.90
38265;DHT22;24062;47.480;8.768;2022-09-12T00:48:34;11.60;60.00
38265;DHT22;24062;47.480;8.768;2022-09-12T00:51:02;11.50;59.90
38265;DHT22;24062;47.480;8.768;2022-09-12T00:53:29;11.50;60.00
38265;DHT22;24062;47.480;8.768;2022-09-12T00:55:57;11.50;60.10
38265;DHT22;24062;47.480;8.768;2022-09-12T00:58:28;11.40;60.10
38265;DHT22;24062;47.480;8.768;2022-09-12T01:00:56;11.40;60.60
38265;DHT22;24062;47.480;8.768;2022-09-12T01:03:24;11.40;60.50
38265;DHT22;24062;47.480;8.768;2022-09-12T01:05:58;11.30;60.50
38265;DHT22;24062;47.480;8.768;2022-09-12T01:08:28;11.30;60.60
38265;DHT22;24062;47.480;8.768;2022-09-12T01:10:55;11.30;60.60
38265;DHT22;24062;47.480;8.768;2022-09-12T01:13:23;11.30;60.60
38265;DHT22;24062;47.480;8.768;2022-09-12T01:15:51;11.30;60.70
38265;DHT22;24062;47.480;8.768;2022-09-12T01:18:24;11.30;61.00
38265;DHT22;24062;47.480;8.768;2022-09-12T01:21:10;11.20;61.00
38265;DHT22;24062;47.480;8.768;2022-09-12T01:27:18;11.20;61.30
38265;DHT22;24062;47.480;8.768;2022-09-12T01:33:06;11.20;61.20
38265;DHT22;24062;47.480;8.768;2022-09-12T01:35:44;11.10;61.20
38265;DHT22;24062;47.480;8.768;2022-09-12T01:38:21;11.10;61.20
38265;DHT22;24062;47.480;8.768;2022-09-12T01:40:58;11.00;61.10
38265;DHT22;24062;47.480;8.768;2022-09-12T01:43:32;11.00;61.20
38265;DHT22;24062;47.480;8.768;2022-09-12T01:46:06;10.90;61.10
38265;DHT22;24062;47.480;8.768;2022-09-12T01:48:42;10.90;61.30
38265;DHT22;24062;47.480;8.768;2022-09-12T01:51:15;10.90;61.60
38265;DHT22;24062;47.480;8.768;2022-09-12T01:53:45;10.90;61.60
38265;DHT22;24062;47.480;8.768;2022-09-12T01:56:16;10.90;61.60
38265;DHT22;24062;47.480;8.768;2022-09-12T01:58:49;10.80;61.60
38265;DHT22;24062;47.480;8.768;2022-09-12T02:01:20;10.80;61.80
38265;DHT22;24062;47.480;8.768;2022-09-12T02:03:54;10.80;61.90
38265;DHT22;24062;47.480;8.768;2022-09-12T02:06:26;10.80;62.00
38265;DHT22;24062;47.480;8.768;2022-09-12T02:08:58;10.80;62.10
38265;DHT22;24062;47.480;8.768;2022-09-12T02:11:25;10.70;62.00
38265;DHT22;24062;47.480;8.768;2022-09-12T02:13:56;10.70;62.10
38265;DHT22;24062;47.480;8.768;2022-09-12T02:16:29;10.70;62.10
38265;DHT22;24062;47.480;8.768;2022-09-12T02:19:04;10.70;62.20
38265;DHT22;24062;47.480;8.768;2022-09-12T02:21:34;10.60;62.10
38265;DHT22;24062;47.480;8.768;2022-09-12T02:24:04;10.70;62.20
38265;DHT22;24062;47.480;8.768;2022-09-12T02:26:35;10.60;62.20
38265;DHT22;24062;47.480;8.768;2022-09-12T02:29:06;10.60;62.20
38265;DHT22;24062;47.480;8.768;2022-09-12T02:31:38;10.60;62.40
38265;DHT22;24062;47.480;8.768;2022-09-12T02:34:19;10.60;62.60
38265;DHT22;24062;47.480;8.768;2022-09-12T02:36:54;10.50;62.60
38265;DHT22;24062;47.480;8.768;2022-09-12T02:39:25;10.60;62.60
38265;DHT22;24062;47.480;8.768;2022-09-12T02:41:53;10.50;62.50
38265;DHT22;24062;47.480;8.768;2022-09-12T02:44:21;10.50;62.60
38265;DHT22;24062;47.480;8.768;2022-09-12T02:46:52;10.50;62.70
38265;DHT22;24062;47.480;8.768;2022-09-12T02:49:22;10.50;62.90
38265;DHT22;24062;47.480;8.768;2022-09-12T02:51:50;10.60;63.00
38265;DHT22;24062;47.480;8.768;2022-09-12T02:54:17;10.40;63.00
38265;DHT22;24062;47.480;8.768;2022-09-12T02:56:45;10.40;63.20
38265;DHT22;24062;47.480;8.768;2022-09-12T02:59:14;10.40;63.20
38265;DHT22;24062;47.480;8.768;2022-09-12T03:02:06;10.40;63.20
38265;DHT22;24062;47.480;8.768;2022-09-12T03:04:48;10.30;63.30
38265;DHT22;24062;47.480;8.768;2022-09-12T03:07:27;10.30;63.30
38265;DHT22;24062;47.480;8.768;2022-09-12T03:10:02;10.40;63.40
38265;DHT22;24062;47.480;8.768;2022-09-12T03:12:45;10.30;64.10
38265;DHT22;24062;47.480;8.768;2022-09-12T03:15:24;10.30;63.50
38265;DHT22;24062;47.480;8.768;2022-09-12T03:18:04;10.30;63.60
38265;DHT22;24062;47.480;8.768;2022-09-12T03:20:43;10.30;63.60
38265;DHT22;24062;47.480;8.768;2022-09-12T03:23:18;10.30;63.80
38265;DHT22;24062;47.480;8.768;2022-09-12T03:25:51;10.30;63.80
38265;DHT22;24062;47.480;8.768;2022-09-12T03:28:21;10.30;63.80
38265;DHT22;24062;47.480;8.768;2022-09-12T03:30:49;10.30;63.90
38265;DHT22;24062;47.480;8.768;2022-09-12T03:33:20;10.30;64.00
38265;DHT22;24062;47.480;8.768;2022-09-12T03:35:49;10.20;64.00
38265;DHT22;24062;47.480;8.768;2022-09-12T03:38:17;10.20;64.00
38265;DHT22;24062;47.480;8.768;2022-09-12T03:40:44;10.30;64.20
38265;DHT22;24062;47.480;8.768;2022-09-12T03:43:11;10.20;64.20
38265;DHT22;24062;47.480;8.768;2022-09-12T03:45:38;10.20;64.30
38265;DHT22;24062;47.480;8.768;2022-09-12T03:48:05;10.20;64.40
38265;DHT22;24062;47.480;8.768;2022-09-12T03:50:32;10.20;64.40
38265;DHT22;24062;47.480;8.768;2022-09-12T03:53:01;10.10;64.30
38265;DHT22;24062;47.480;8.768;2022-09-12T03:55:28;10.10;64.40
38265;DHT22;24062;47.480;8.768;2022-09-12T03:57:55;10.10;64.50
38265;DHT22;24062;47.480;8.768;2022-09-12T04:00:22;10.10;64.50
38265;DHT22;24062;47.480;8.768;2022-09-12T04:02:53;10.10;64.50
38265;DHT22;24062;47.480;8.768;2022-09-12T04:05:20;10.10;64.60
38265;DHT22;24062;47.480;8.768;2022-09-12T04:07:47;10.10;64.60
38265;DHT22;24062;47.480;8.768;2022-09-12T04:10:15;10.10;64.80
38265;DHT22;24062;47.480;8.768;2022-09-12T04:12:42;10.00;64.90
38265;DHT22;24062;47.480;8.768;2022-09-12T04:15:10;10.00;64.90
38265;DHT22;24062;47.480;8.768;2022-09-12T04:17:37;10.10;65.10
38265;DHT22;24062;47.480;8.768;2022-09-12T04:20:04;10.00;65.10
38265;DHT22;24062;47.480;8.768;2022-09-12T04:22:32;10.00;65.10
38265;DHT22;24062;47.480;8.768;2022-09-12T04:24:58;10.00;65.10
38265;DHT22;24062;47.480;8.768;2022-09-12T04:27:27;10.00;65.20
38265;DHT22;24062;47.480;8.768;2022-09-12T04:29:54;10.00;65.40
38265;DHT22;24062;47.480;8.768;2022-09-12T04:32:21;10.00;65.40
38265;DHT22;24062;47.480;8.768;2022-09-12T04:34:48;9.90;66.60
38265;DHT22;24062;47.480;8.768;2022-09-12T04:37:17;9.90;66.70
38265;DHT22;24062;47.480;8.768;2022-09-12T04:39:44;10.00;65.60
38265;DHT22;24062;47.480;8.768;2022-09-12T04:42:13;9.90;66.70
38265;DHT22;24062;47.480;8.768;2022-09-12T04:44:42;10.00;65.70
38265;DHT22;24062;47.480;8.768;2022-09-12T04:47:08;10.00;65.80
38265;DHT22;24062;47.480;8.768;2022-09-12T04:49:35;10.00;65.90
38265;DHT22;24062;47.480;8.768;2022-09-12T04:52:02;10.00;65.90
38265;DHT22;24062;47.480;8.768;2022-09-12T04:54:29;9.90;67.00
38265;DHT22;24062;47.480;8.768;2022-09-12T04:56:56;10.00;66.10
38265;DHT22;24062;47.480;8.768;2022-09-12T04:59:23;10.00;66.00
38265;DHT22;24062;47.480;8.768;2022-09-12T05:01:52;10.00;66.00
38265;DHT22;24062;47.480;8.768;2022-09-12T05:04:19;10.00;66.00
38265;DHT22;24062;47.480;8.768;2022-09-12T05:06:46;10.00;66.00
38265;DHT22;24062;47.480;8.768;2022-09-12T05:09:13;10.00;66.00
38265;DHT22;24062;47.480;8.768;2022-09-12T05:11:43;10.00;66.00
38265;DHT22;24062;47.480;8.768;2022-09-12T05:14:10;10.00;66.10
38265;DHT22;24062;47.480;8.768;2022-09-12T05:16:37;10.00;66.10
38265;DHT22;24062;47.480;8.768;2022-09-12T05:19:08;10.00;66.20
38265;DHT22;24062;47.480;8.768;2022-09-12T05:21:36;10.00;66.20
38265;DHT22;24062;47.480;8.768;2022-09-12T05:24:03;10.10;66.30
38265;DHT22;24062;47.480;8.768;2022-09-12T05:26:31;10.00;66.40
38265;DHT22;24062;47.480;8.768;2022-09-12T05:28:58;10.10;66.40
38265;DHT22;24062;47.480;8.768;2022-09-12T05:31:26;10.10;66.50
38265;DHT22;24062;47.480;8.768;2022-09-12T05:33:54;10.10;66.50
38265;DHT22;24062;47.480;8.768;2022-09-12T05:36:24;10.20;66.70
38265;DHT22;24062;47.480;8.768;2022-09-12T05:38:52;10.20;66.70
38265;DHT22;24062;47.480;8.768;2022-09-12T05:41:21;10.20;66.90
38265;DHT22;24062;47.480;8.768;2022-09-12T05:43:51;10.30;67.20
38265;DHT22;24062;47.480;8.768;2022-09-12T05:46:20;10.40;67.50
38265;DHT22;24062;47.480;8.768;2022-09-12T05:48:48;10.60;67.70
38265;DHT22;24062;47.480;8.768;2022-09-12T05:51:17;10.70;67.70
38265;DHT22;24062;47.480;8.768;2022-09-12T05:53:47;10.80;67.80
38265;DHT22;24062;47.480;8.768;2022-09-12T05:56:17;10.90;67.90
38265;DHT22;24062;47.480;8.768;2022-09-12T05:58:47;11.10;68.10
38265;DHT22;24062;47.480;8.768;2022-09-12T06:01:15;11.20;68.10
38265;DHT22;24062;47.480;8.768;2022-09-12T06:03:44;11.30;68.20
38265;DHT22;24062;47.480;8.768;2022-09-12T06:06:12;11.50;68.40
38265;DHT22;24062;47.480;8.768;2022-09-12T06:08:41;11.60;68.50
38265;DHT22;24062;47.480;8.768;2022-09-12T06:11:11;11.70;68.60
38265;DHT22;24062;47.480;8.768;2022-09-12T06:13:40;11.80;68.70
38265;DHT22;24062;47.480;8.768;2022-09-12T06:16:08;12.00;69.00
38265;DHT22;24062;47.480;8.768;2022-09-12T06:18:37;12.10;69.00
38265;DHT22;24062;47.480;8.768;2022-09-12T06:21:05;12.20;69.10
38265;DHT22;24062;47.480;8.768;2022-09-12T06:23:32;12.40;69.20
38265;DHT22;24062;47.480;8.768;2022-09-12T06:26:00;12.50;69.30
38265;DHT22;24062;47.480;8.768;2022-09-12T06:28:29;12.60;69.40
38265;DHT22;24062;47.480;8.768;2022-09-12T06:31:01;12.70;69.50
38265;DHT22;24062;47.480;8.768;2022-09-12T06:33:30;12.90;69.70
38265;DHT22;24062;47.480;8.768;2022-09-12T06:36:03;13.20;69.90
38265;DHT22;24062;47.480;8.768;2022-09-12T06:38:30;13.40;69.80
38265;DHT22;24062;47.480;8.768;2022-09-12T06:40:57;13.50;69.70
38265;DHT22;24062;47.480;8.768;2022-09-12T06:43:24;13.60;69.80
38265;DHT22;24062;47.480;8.768;2022-09-12T06:45:53;13.60;69.90
38265;DHT22;24062;47.480;8.768;2022-09-12T06:48:20;13.70;70.20
38265;DHT22;24062;47.480;8.768;2022-09-12T06:50:54;13.80;70.40
38265;DHT22;24062;47.480;8.768;2022-09-12T06:53:22;14.00;70.70
38265;DHT22;24062;47.480;8.768;2022-09-12T06:55:54;14.10;70.80
38265;DHT22;24062;47.480;8.768;2022-09-12T06:58:21;14.30;71.20
38265;DHT22;24062;47.480;8.768;2022-09-12T07:00:48;14.40;71.20
38265;DHT22;24062;47.480;8.768;2022-09-12T07:03:17;14.60;71.50
38265;DHT22;24062;47.480;8.768;2022-09-12T07:05:44;14.90;71.90
38265;DHT22;24062;47.480;8.768;2022-09-12T07:08:11;15.20;72.70
38265;DHT22;24062;47.480;8.768;2022-09-12T07:10:38;15.40;72.10
38265;DHT22;24062;47.480;8.768;2022-09-12T07:13:05;15.60;71.80
38265;DHT22;24062;47.480;8.768;2022-09-12T07:15:34;15.80;71.90
38265;DHT22;24062;47.480;8.768;2022-09-12T07:18:01;16.00;71.70
38265;DHT22;24062;47.480;8.768;2022-09-12T07:20:29;16.30;71.60
38265;DHT22;24062;47.480;8.768;2022-09-12T07:22:58;16.40;71.60
38265;DHT22;24062;47.480;8.768;2022-09-12T07:25:24;16.70;71.70
38265;DHT22;24062;47.480;8.768;2022-09-12T07:27:52;16.90;71.40
38265;DHT22;24062;47.480;8.768;2022-09-12T07:30:19;17.00;70.90
38265;DHT22;24062;47.480;8.768;2022-09-12T07:32:46;17.20;70.80
38265;DHT22;24062;47.480;8.768;2022-09-12T07:35:16;17.40;70.70
38265;DHT22;24062;47.480;8.768;2022-09-12T07:37:45;17.60;70.50
38265;DHT22;24062;47.480;8.768;2022-09-12T07:40:12;17.60;70.60
38265;DHT22;24062;47.480;8.768;2022-09-12T07:42:39;17.50;70.80
38265;DHT22;24062;47.480;8.768;2022-09-12T07:45:06;17.40;70.80
38265;DHT22;24062;47.480;8.768;2022-09-12T07:47:33;17.40;71.50
38265;DHT22;24062;47.480;8.768;2022-09-12T07:50:00;17.40;71.70
38265;DHT22;24062;47.480;8.768;2022-09-12T07:52:27;17.40;71.90
38265;DHT22;24062;47.480;8.768;2022-09-12T07:54:56;17.40;72.10
38265;DHT22;24062;47.480;8.768;2022-09-12T07:57:23;17.50;72.30
38265;DHT22;24062;47.480;8.768;2022-09-12T07:59:50;17.50;72.20
38265;DHT22;24062;47.480;8.768;2022-09-12T08:02:17;17.50;72.10
38265;DHT22;24062;47.480;8.768;2022-09-12T08:04:46;17.50;72.40
38265;DHT22;24062;47.480;8.768;2022-09-12T08:07:13;17.60;72.50
38265;DHT22;24062;47.480;8.768;2022-09-12T08:09:40;17.60;72.70
38265;DHT22;24062;47.480;8.768;2022-09-12T08:12:08;17.70;72.90
38265;DHT22;24062;47.480;8.768;2022-09-12T08:14:35;17.80;73.00
38265;DHT22;24062;47.480;8.768;2022-09-12T08:17:02;17.90;73.10
38265;DHT22;24062;47.480;8.768;2022-09-12T08:19:29;18.10;73.30
38265;DHT22;24062;47.480;8.768;2022-09-12T08:21:56;18.20;73.30
38265;DHT22;24062;47.480;8.768;2022-09-12T08:24:23;18.30;73.20
38265;DHT22;24062;47.480;8.768;2022-09-12T08:26:50;18.40;73.90
38265;DHT22;24062;47.480;8.768;2022-09-12T08:29:18;18.40;73.40
38265;DHT22;24062;47.480;8.768;2022-09-12T08:31:46;18.60;73.60
38265;DHT22;24062;47.480;8.768;2022-09-12T08:34:13;18.70;73.60
38265;DHT22;24062;47.480;8.768;2022-09-12T08:36:41;18.80;73.50
38265;DHT22;24062;47.480;8.768;2022-09-12T08:39:11;18.70;73.00
38265;DHT22;24062;47.480;8.768;2022-09-12T08:41:40;18.60;72.90
38265;DHT22;24062;47.480;8.768;2022-09-12T08:44:22;18.80;73.50
38265;DHT22;24062;47.480;8.768;2022-09-12T08:47:11;18.90;73.40
38265;DHT22;24062;47.480;8.768;2022-09-12T08:49:47;19.00;73.70
38265;DHT22;24062;47.480;8.768;2022-09-12T08:52:20;19.10;72.80
38265;DHT22;24062;47.480;8.768;2022-09-12T08:54:49;19.10;72.60
38265;DHT22;24062;47.480;8.768;2022-09-12T08:57:16;19.20;72.20
38265;DHT22;24062;47.480;8.768;2022-09-12T08:59:45;19.10;71.80
38265;DHT22;24062;47.480;8.768;2022-09-12T09:05:24;19.30;72.40
38265;DHT22;24062;47.480;8.768;2022-09-12T09:08:15;19.40;72.30
38265;DHT22;24062;47.480;8.768;2022-09-12T09:10:47;19.60;72.70
38265;DHT22;24062;47.480;8.768;2022-09-12T09:13:27;19.70;72.20
38265;DHT22;24062;47.480;8.768;2022-09-12T09:16:23;19.90;72.50
38265;DHT22;24062;47.480;8.768;2022-09-12T09:18:52;20.10;72.60
38265;DHT22;24062;47.480;8.768;2022-09-12T09:21:24;20.30;72.70
38265;DHT22;24062;47.480;8.768;2022-09-12T09:23:56;20.50;72.50
38265;DHT22;24062;47.480;8.768;2022-09-12T09:26:28;20.50;71.60
38265;DHT22;24062;47.480;8.768;2022-09-12T09:29:03;20.50;71.80
38265;DHT22;24062;47.480;8.768;2022-09-12T09:31:36;20.50;71.30
38265;DHT22;24062;47.480;8.768;2022-09-12T09:34:12;20.50;71.00
38265;DHT22;24062;47.480;8.768;2022-09-12T09:36:47;20.50;70.60
38265;DHT22;24062;47.480;8.768;2022-09-12T09:39:22;20.70;70.60
38265;DHT22;24062;47.480;8.768;2022-09-12T09:41:57;20.90;70.80
38265;DHT22;24062;47.480;8.768;2022-09-12T09:44:27;21.00;70.30
38265;DHT22;24062;47.480;8.768;2022-09-12T09:46:57;21.30;71.00
38265;DHT22;24062;47.480;8.768;2022-09-12T09:49:26;21.50;71.10
38265;DHT22;24062;47.480;8.768;2022-09-12T09:51:54;21.70;70.40
38265;DHT22;24062;47.480;8.768;2022-09-12T09:54:24;21.90;70.50
38265;DHT22;24062;47.480;8.768;2022-09-12T09:56:51;22.20;70.10
38265;DHT22;24062;47.480;8.768;2022-09-12T09:59:25;22.50;70.40
38265;DHT22;24062;47.480;8.768;2022-09-12T10:01:53;22.70;69.80
38265;DHT22;24062;47.480;8.768;2022-09-12T10:04:24;22.90;69.70
38265;DHT22;24062;47.480;8.768;2022-09-12T10:06:53;23.00;68.80
38265;DHT22;24062;47.480;8.768;2022-09-12T10:09:24;23.10;68.40
38265;DHT22;24062;47.480;8.768;2022-09-12T10:11:52;23.20;68.80
38265;DHT22;24062;47.480;8.768;2022-09-12T10:14:34;23.40;68.90
38265;DHT22;24062;47.480;8.768;2022-09-12T10:17:20;23.70;68.50
38265;DHT22;24062;47.480;8.768;2022-09-12T10:19:50;23.80;68.20
38265;DHT22;24062;47.480;8.768;2022-09-12T10:22:20;23.80;66.90
38265;DHT22;24062;47.480;8.768;2022-09-12T10:24:49;23.80;66.50
38265;DHT22;24062;47.480;8.768;2022-09-12T10:27:19;23.80;66.00
38265;DHT22;24062;47.480;8.768;2022-09-12T10:29:49;23.90;66.50
38265;DHT22;24062;47.480;8.768;2022-09-12T10:32:25;24.00;66.10
38265;DHT22;24062;47.480;8.768;2022-09-12T10:34:57;24.10;65.60
38265;DHT22;24062;47.480;8.768;2022-09-12T10:37:29;24.20;65.60
38265;DHT22;24062;47.480;8.768;2022-09-12T10:39:58;24.30;65.50
38265;DHT22;24062;47.480;8.768;2022-09-12T10:42:47;24.60;66.10
38265;DHT22;24062;47.480;8.768;2022-09-12T10:45:20;24.90;65.50
38265;DHT22;24062;47.480;8.768;2022-09-12T10:47:47;25.10;65.10
38265;DHT22;24062;47.480;8.768;2022-09-12T10:50:26;25.10;64.10
38265;DHT22;24062;47.480;8.768;2022-09-12T10:52:53;25.00;63.50
38265;DHT22;24062;47.480;8.768;2022-09-12T10:55:25;24.90;63.90
38265;DHT22;24062;47.480;8.768;2022-09-12T10:58:13;25.10;64.30
38265;DHT22;24062;47.480;8.768;2022-09-12T11:00:49;25.30;63.90
38265;DHT22;24062;47.480;8.768;2022-09-12T11:03:22;25.40;63.40
38265;DHT22;24062;47.480;8.768;2022-09-12T11:05:57;25.60;63.90
38265;DHT22;24062;47.480;8.768;2022-09-12T11:08:41;25.80;63.10
38265;DHT22;24062;47.480;8.768;2022-09-12T11:11:27;25.80;62.20
38265;DHT22;24062;47.480;8.768;2022-09-12T11:14:11;25.70;61.40
38265;DHT22;24062;47.480;8.768;2022-09-12T11:16:42;25.50;61.30
38265;DHT22;24062;47.480;8.768;2022-09-12T11:19:44;25.60;62.30
38265;DHT22;24062;47.480;8.768;2022-09-12T11:22:24;25.80;61.40
38265;DHT22;24062;47.480;8.768;2022-09-12T11:25:22;25.60;60.40
38265;DHT22;24062;47.480;8.768;2022-09-12T11:28:12;25.50;60.30
38265;DHT22;24062;47.480;8.768;2022-09-12T11:30:50;25.50;61.10
38265;DHT22;24062;47.480;8.768;2022-09-12T11:33:39;25.80;61.30
38265;DHT22;24062;47.480;8.768;2022-09-12T11:36:14;26.00;60.70
38265;DHT22;24062;47.480;8.768;2022-09-12T11:39:00;26.10;60.70
38265;DHT22;24062;47.480;8.768;2022-09-12T11:41:31;26.40;60.50
38265;DHT22;24062;47.480;8.768;2022-09-12T11:44:03;26.50;59.50
38265;DHT22;24062;47.480;8.768;2022-09-12T11:46:36;26.40;59.30
38265;DHT22;24062;47.480;8.768;2022-09-12T11:49:10;26.50;59.90
38265;DHT22;24062;47.480;8.768;2022-09-12T11:51:44;26.80;60.90
38265;DHT22;24062;47.480;8.768;2022-09-12T11:54:19;27.00;59.40
38265;DHT22;24062;47.480;8.768;2022-09-12T11:56:50;27.10;58.60
38265;DHT22;24062;47.480;8.768;2022-09-12T11:59:28;27.10;58.60
38265;DHT22;24062;47.480;8.768;2022-09-12T12:01:58;27.20;58.30
38265;DHT22;24062;47.480;8.768;2022-09-12T12:04:31;27.30;58.20
38265;DHT22;24062;47.480;8.768;2022-09-12T12:07:03;27.40;58.00
38265;DHT22;24062;47.480;8.768;2022-09-12T12:09:46;27.40;57.40
38265;DHT22;24062;47.480;8.768;2022-09-12T12:12:18;27.40;57.00
38265;DHT22;24062;47.480;8.768;2022-09-12T12:14:48;27.40;57.40
38265;DHT22;24062;47.480;8.768;2022-09-12T12:17:17;27.90;58.30
38265;DHT22;24062;47.480;8.768;2022-09-12T12:19:45;28.30;57.10
38265;DHT22;24062;47.480;8.768;2022-09-12T12:22:17;28.40;56.60
38265;DHT22;24062;47.480;8.768;2022-09-12T12:27:48;28.90;56.90
38265;DHT22;24062;47.480;8.768;2022-09-12T12:36:41;30.10;56.80
38265;DHT22;24062;47.480;8.768;2022-09-12T12:48:32;31.30;57.40
38265;DHT22;24062;47.480;8.768;2022-09-12T12:51:29;32.20;58.90
38265;DHT22;24062;47.480;8.768;2022-09-12T12:53:58;33.20;58.60
38265;DHT22;24062;47.480;8.768;2022-09-12T12:56:28;34.30;58.60
38265;DHT22;24062;47.480;8.768;2022-09-12T12:59:01;35.40;57.20
38265;DHT22;24062;47.480;8.768;2022-09-12T13:01:29;36.30;56.20
38265;DHT22;24062;47.480;8.768;2022-09-12T13:04:00;37.50;55.30
38265;DHT22;24062;47.480;8.768;2022-09-12T13:06:31;38.90;54.20
38265;DHT22;24062;47.480;8.768;2022-09-12T13:09:02;40.40;52.30
38265;DHT22;24062;47.480;8.768;2022-09-12T13:11:32;41.70;49.60
38265;DHT22;24062;47.480;8.768;2022-09-12T13:14:02;42.90;47.80
38265;DHT22;24062;47.480;8.768;2022-09-12T13:16:31;44.00;46.00
38265;DHT22;24062;47.480;8.768;2022-09-12T13:19:04;45.00;43.80
38265;DHT22;24062;47.480;8.768;2022-09-12T13:21:32;46.00;41.90
38265;DHT22;24062;47.480;8.768;2022-09-12T13:24:01;46.80;40.30
38265;DHT22;24062;47.480;8.768;2022-09-12T13:26:32;47.70;38.90
38265;DHT22;24062;47.480;8.768;2022-09-12T13:29:11;48.40;37.10
38265;DHT22;24062;47.480;8.768;2022-09-12T13:31:38;49.10;36.30
38265;DHT22;24062;47.480;8.768;2022-09-12T13:34:08;50.20;35.30
38265;DHT22;24062;47.480;8.768;2022-09-12T13:36:46;50.80;34.70
38265;DHT22;24062;47.480;8.768;2022-09-12T13:39:19;50.90;32.10
38265;DHT22;24062;47.480;8.768;2022-09-12T13:42:01;51.00;31.80
38265;DHT22;24062;47.480;8.768;2022-09-12T13:44:40;51.00;30.80
38265;DHT22;24062;47.480;8.768;2022-09-12T13:47:13;50.90;30.10
38265;DHT22;24062;47.480;8.768;2022-09-12T13:49:43;51.20;30.10
38265;DHT22;24062;47.480;8.768;2022-09-12T13:52:16;51.80;29.80
38265;DHT22;24062;47.480;8.768;2022-09-12T13:54:45;52.10;29.30
38265;DHT22;24062;47.480;8.768;2022-09-12T13:57:27;52.20;29.30
38265;DHT22;24062;47.480;8.768;2022-09-12T13:59:55;52.40;28.70
38265;DHT22;24062;47.480;8.768;2022-09-12T14:02:24;52.50;28.80
38265;DHT22;24062;47.480;8.768;2022-09-12T14:04:54;52.90;28.70
38265;DHT22;24062;47.480;8.768;2022-09-12T14:07:38;53.40;28.50
38265;DHT22;24062;47.480;8.768;2022-09-12T14:10:06;53.70;28.10
38265;DHT22;24062;47.480;8.768;2022-09-12T14:12:36;53.80;28.00
38265;DHT22;24062;47.480;8.768;2022-09-12T14:15:06;53.20;27.20
38265;DHT22;24062;47.480;8.768;2022-09-12T14:17:47;53.10;27.10
38265;DHT22;24062;47.480;8.768;2022-09-12T14:20:19;52.90;27.00
38265;DHT22;24062;47.480;8.768;2022-09-12T14:22:48;52.90;27.00
38265;DHT22;24062;47.480;8.768;2022-09-12T14:25:17;53.10;27.30
38265;DHT22;24062;47.480;8.768;2022-09-12T14:27:47;54.00;28.00
38265;DHT22;24062;47.480;8.768;2022-09-12T14:30:22;54.50;27.10
38265;DHT22;24062;47.480;8.768;2022-09-12T14:33:17;54.50;26.60
38265;DHT22;24062;47.480;8.768;2022-09-12T14:35:47;54.40;26.40
38265;DHT22;24062;47.480;8.768;2022-09-12T14:38:22;54.40;26.30
38265;DHT22;24062;47.480;8.768;2022-09-12T14:40:52;54.40;26.10
38265;DHT22;24062;47.480;8.768;2022-09-12T14:43:26;54.60;26.30
38265;DHT22;24062;47.480;8.768;2022-09-12T14:45:56;54.80;26.30
38265;DHT22;24062;47.480;8.768;2022-09-12T14:48:25;55.20;26.10
38265;DHT22;24062;47.480;8.768;2022-09-12T14:50:55;55.30;26.00
38265;DHT22;24062;47.480;8.768;2022-09-12T14:53:31;55.40;26.00
38265;DHT22;24062;47.480;8.768;2022-09-12T14:56:06;55.40;26.00
38265;DHT22;24062;47.480;8.768;2022-09-12T14:58:33;55.50;26.10
38265;DHT22;24062;47.480;8.768;2022-09-12T15:01:02;55.60;26.10
38265;DHT22;24062;47.480;8.768;2022-09-12T15:03:32;55.60;26.20
38265;DHT22;24062;47.480;8.768;2022-09-12T15:06:02;55.60;26.10
38265;DHT22;24062;47.480;8.768;2022-09-12T15:08:30;55.40;26.20
38265;DHT22;24062;47.480;8.768;2022-09-12T15:10:57;55.40;26.40
38265;DHT22;24062;47.480;8.768;2022-09-12T15:13:26;55.40;26.50
38265;DHT22;24062;47.480;8.768;2022-09-12T15:15:56;55.40;26.40
38265;DHT22;24062;47.480;8.768;2022-09-12T15:18:24;55.30;26.60
38265;DHT22;24062;47.480;8.768;2022-09-12T15:20:54;55.30;26.60
38265;DHT22;24062;47.480;8.768;2022-09-12T15:23:39;54.90;26.40
38265;DHT22;24062;47.480;8.768;2022-09-12T15:26:09;54.80;26.60
38265;DHT22;24062;47.480;8.768;2022-09-12T15:28:37;54.70;26.70
38265;DHT22;24062;47.480;8.768;2022-09-12T15:31:07;54.80;27.30
38265;DHT22;24062;47.480;8.768;2022-09-12T15:33:36;54.70;26.60
38265;DHT22;24062;47.480;8.768;2022-09-12T15:36:12;54.40;26.60
38265;DHT22;24062;47.480;8.768;2022-09-12T15:38:42;54.10;26.60
38265;DHT22;24062;47.480;8.768;2022-09-12T15:41:11;53.60;26.20
38265;DHT22;24062;47.480;8.768;2022-09-12T15:43:39;52.80;26.20
38265;DHT22;24062;47.480;8.768;2022-09-12T15:46:07;52.20;26.60
38265;DHT22;24062;47.480;8.768;2022-09-12T15:48:36;52.30;26.80
38265;DHT22;24062;47.480;8.768;2022-09-12T15:51:03;52.50;26.90
38265;DHT22;24062;47.480;8.768;2022-09-12T15:53:30;52.70;27.00
38265;DHT22;24062;47.480;8.768;2022-09-12T15:55:58;52.60;26.80
38265;DHT22;24062;47.480;8.768;2022-09-12T15:58:25;52.40;26.80
38265;DHT22;24062;47.480;8.768;2022-09-12T16:00:52;52.30;26.90
38265;DHT22;24062;47.480;8.768;2022-09-12T16:03:21;52.20;26.90
38265;DHT22;24062;47.480;8.768;2022-09-12T16:05:49;52.00;26.90
38265;DHT22;24062;47.480;8.768;2022-09-12T16:08:16;51.50;26.60
38265;DHT22;24062;47.480;8.768;2022-09-12T16:10:43;50.90;26.90
38265;DHT22;24062;47.480;8.768;2022-09-12T16:13:13;50.50;26.80
38265;DHT22;24062;47.480;8.768;2022-09-12T16:15:40;49.40;26.20
38265;DHT22;24062;47.480;8.768;2022-09-12T16:18:06;46.70;25.10
38265;DHT22;24062;47.480;8.768;2022-09-12T16:20:34;43.40;25.00
38265;DHT22;24062;47.480;8.768;2022-09-12T16:23:01;40.70;25.50